createdAt,value
2023-06-08T00:00:13.504Z,1576.79
2023-06-08T00:01:13.380Z,1576.36
2023-06-08T00:02:13.351Z,1577.01
2023-06-08T00:03:13.210Z,1576.53
2023-06-08T00:04:13.293Z,1576.40
2023-06-08T00:05:13.464Z,1576.10
2023-06-08T00:06:13.506Z,1576.01
2023-06-08T00:07:13.878Z,1576.03
2023-06-08T00:08:12.849Z,1576.44
2023-06-08T00:09:13.839Z,1576.84
2023-06-08T00:10:13.988Z,1576.95
2023-06-08T00:11:12.908Z,1575.86
2023-06-08T00:12:12.749Z,1576.16
2023-06-08T00:13:13.782Z,1576.83
2023-06-08T00:14:13.800Z,1576.60
2023-06-08T00:15:13.932Z,1576.67
2023-06-08T00:16:12.769Z,1576.67
2023-06-08T00:17:13.931Z,1576.49
2023-06-08T00:18:12.944Z,1575.60
2023-06-08T00:19:13.019Z,1575.17
2023-06-08T00:20:12.896Z,1575.93
2023-06-08T00:21:12.776Z,1576.05
2023-06-08T00:22:13.629Z,1576.13
2023-06-08T00:23:13.538Z,1576.05
2023-06-08T00:24:13.549Z,1575.07
2023-06-08T00:25:13.429Z,1575.25
2023-06-08T00:26:13.254Z,1575.43
2023-06-08T00:27:13.126Z,1575.66
2023-06-08T00:28:14.349Z,1575.70
2023-06-08T00:29:13.456Z,1575.52
2023-06-08T00:30:13.327Z,1575.17
2023-06-08T00:31:13.204Z,1575.28
2023-06-08T00:32:13.110Z,1576.12
2023-06-08T00:33:12.986Z,1575.09
2023-06-08T00:34:12.790Z,1575.38
2023-06-08T00:35:13.662Z,1575.42
2023-06-08T00:36:13.460Z,1575.87
2023-06-08T00:37:13.348Z,1575.80
2023-06-08T00:38:13.179Z,1575.28
2023-06-08T00:39:13.019Z,1576.34
2023-06-08T00:40:12.793Z,1575.55
2023-06-08T00:41:13.731Z,1574.52
2023-06-08T00:42:13.882Z,1575.56
2023-06-08T00:43:13.935Z,1575.36
2023-06-08T00:44:12.788Z,1575.10
2023-06-08T00:45:13.677Z,1575.25
2023-06-08T00:46:13.785Z,1574.47
2023-06-08T00:47:15.295Z,1574.77
2023-06-08T00:48:12.797Z,1574.45
2023-06-08T00:49:13.632Z,1574.03
2023-06-08T00:50:13.579Z,1574.51
2023-06-08T00:51:13.773Z,1574.30
2023-06-08T00:52:13.669Z,1575.10
2023-06-08T00:53:13.624Z,1573.98
2023-06-08T00:54:13.765Z,1574.02
2023-06-08T00:55:13.604Z,1575.10
2023-06-08T00:56:13.636Z,1575.28
2023-06-08T00:57:13.784Z,1574.76
2023-06-08T00:58:13.917Z,1574.18
2023-06-08T00:59:13.173Z,1574.16
2023-06-08T01:00:13.422Z,1574.85
2023-06-08T01:01:13.728Z,1573.75
2023-06-08T01:02:13.885Z,1574.51
2023-06-08T01:03:13.754Z,1574.46
2023-06-08T01:04:13.997Z,1574.58
2023-06-08T01:05:12.834Z,1574.55
2023-06-08T01:06:13.850Z,1574.66
2023-06-08T01:07:13.679Z,1575.02
2023-06-08T01:08:13.685Z,1574.17
2023-06-08T01:09:13.664Z,1574.00
2023-06-08T01:10:13.926Z,1573.56
2023-06-08T01:11:13.056Z,1574.32
2023-06-08T01:12:12.978Z,1574.95
2023-06-08T01:13:12.831Z,1574.24
2023-06-08T01:14:13.683Z,1574.15
2023-06-08T01:15:13.717Z,1573.70
2023-06-08T01:16:13.567Z,1573.92
2023-06-08T01:17:13.373Z,1573.00
2023-06-08T01:18:13.251Z,1572.90
2023-06-08T01:19:13.397Z,1573.81
2023-06-08T01:20:13.470Z,1574.37
2023-06-08T01:21:13.226Z,1573.77
2023-06-08T01:22:13.362Z,1572.53
2023-06-08T01:23:13.244Z,1572.79
2023-06-08T01:24:13.728Z,1573.71
2023-06-08T01:25:12.897Z,1574.27
2023-06-08T01:26:12.836Z,1573.96
2023-06-08T01:27:13.745Z,1573.02
2023-06-08T01:28:13.849Z,1573.85
2023-06-08T01:29:12.880Z,1573.25
2023-06-08T01:30:12.764Z,1572.45
2023-06-08T01:31:13.673Z,1572.71
2023-06-08T01:32:13.762Z,1572.66
2023-06-08T01:33:13.999Z,1572.22
2023-06-08T01:34:12.883Z,1571.92
2023-06-08T01:35:13.750Z,1572.64
2023-06-08T01:36:13.613Z,1572.95
2023-06-08T01:37:13.354Z,1573.26
2023-06-08T01:38:13.231Z,1572.73
2023-06-08T01:39:13.055Z,1571.69
2023-06-08T01:40:12.877Z,1571.98
2023-06-08T01:41:13.634Z,1572.47
2023-06-08T01:42:13.506Z,1572.22
2023-06-08T01:43:13.436Z,1572.45
2023-06-08T01:44:13.205Z,1571.40
2023-06-08T01:45:13.201Z,1571.78
2023-06-08T01:46:13.135Z,1572.16
2023-06-08T01:47:13.239Z,1571.78
2023-06-08T01:48:13.065Z,1571.62
2023-06-08T01:49:12.792Z,1571.30
2023-06-08T01:50:13.574Z,1571.95
2023-06-08T01:51:13.660Z,1571.29
2023-06-08T01:52:13.651Z,1571.47
2023-06-08T01:53:13.486Z,1572.31
2023-06-08T01:54:13.645Z,1571.90
2023-06-08T01:55:13.415Z,1570.95
2023-06-08T01:56:13.526Z,1571.25
2023-06-08T01:57:13.659Z,1571.76
2023-06-08T01:58:13.606Z,1571.59
2023-06-08T01:59:13.762Z,1572.00
2023-06-08T02:00:13.559Z,1571.56
2023-06-08T02:01:13.629Z,1571.39
2023-06-08T02:02:13.566Z,1571.53
2023-06-08T02:03:13.415Z,1571.00
2023-06-08T02:04:13.361Z,1571.87
2023-06-08T02:05:13.139Z,1572.22
2023-06-08T02:06:13.000Z,1571.55
2023-06-08T02:07:12.840Z,1571.23
2023-06-08T02:08:13.814Z,1570.72
2023-06-08T02:09:13.658Z,1571.48
2023-06-08T02:10:13.515Z,1571.68
2023-06-08T02:11:13.386Z,1571.86
2023-06-08T02:12:13.448Z,1572.36
2023-06-08T02:13:13.195Z,1570.86
2023-06-08T02:14:13.034Z,1571.25
2023-06-08T02:15:12.810Z,1571.74
2023-06-08T02:16:13.758Z,1572.21
2023-06-08T02:17:13.675Z,1570.63
2023-06-08T02:18:13.678Z,1571.00
2023-06-08T02:19:13.540Z,1572.02
2023-06-08T02:20:13.367Z,1572.09
2023-06-08T02:21:13.493Z,1572.04
2023-06-08T02:22:13.606Z,1571.72
2023-06-08T02:23:14.054Z,1571.66
2023-06-08T02:24:13.343Z,1571.69
2023-06-08T02:25:13.239Z,1572.25
2023-06-08T02:26:13.149Z,1572.09
2023-06-08T02:27:13.024Z,1572.36
2023-06-08T02:28:13.156Z,1571.88
2023-06-08T02:29:12.975Z,1570.93
2023-06-08T02:30:13.284Z,1571.69
2023-06-08T02:31:13.318Z,1571.59
2023-06-08T02:32:13.125Z,1571.12
2023-06-08T02:33:13.055Z,1571.02
2023-06-08T02:34:13.696Z,1571.46
2023-06-08T02:35:13.726Z,1570.61
2023-06-08T02:36:14.015Z,1570.86
2023-06-08T02:37:13.043Z,1570.80
2023-06-08T02:38:12.989Z,1571.54
2023-06-08T02:39:13.283Z,1571.89
2023-06-08T02:40:13.083Z,1571.87
2023-06-08T02:41:12.997Z,1571.61
2023-06-08T02:42:13.132Z,1571.11
2023-06-08T02:43:12.940Z,1571.07
2023-06-08T02:44:12.748Z,1570.77
2023-06-08T02:45:13.530Z,1570.66
2023-06-08T02:46:13.546Z,1570.10
2023-06-08T02:47:13.630Z,1569.71
2023-06-08T02:48:13.570Z,1569.46
2023-06-08T02:49:13.333Z,1569.60
2023-06-08T02:50:13.188Z,1569.41
2023-06-08T02:51:12.990Z,1569.12
2023-06-08T02:52:12.702Z,1569.91
2023-06-08T02:53:13.461Z,1569.81
2023-06-08T02:54:13.166Z,1570.03
2023-06-08T02:55:12.900Z,1570.27
2023-06-08T02:56:12.749Z,1570.18
2023-06-08T02:57:18.580Z,1569.29
2023-06-08T02:58:13.481Z,1569.43
2023-06-08T02:59:13.487Z,1569.48
2023-06-08T03:00:13.526Z,1569.63
2023-06-08T03:01:20.983Z,1569.30
2023-06-08T03:02:13.369Z,1569.38
2023-06-08T03:03:13.681Z,1569.53
2023-06-08T03:04:13.744Z,1570.08
2023-06-08T03:05:13.820Z,1569.74
2023-06-08T03:06:13.620Z,1569.53
2023-06-08T03:07:13.405Z,1569.31
2023-06-08T03:08:13.195Z,1569.77
2023-06-08T03:09:13.400Z,1569.29
2023-06-08T03:10:13.311Z,1569.92
2023-06-08T03:11:13.039Z,1569.88
2023-06-08T03:12:13.511Z,1569.65
2023-06-08T03:13:13.825Z,1569.74
2023-06-08T03:14:13.859Z,1569.27
2023-06-08T03:15:13.942Z,1568.11
2023-06-08T03:16:12.839Z,1569.15
2023-06-08T03:17:13.644Z,1569.01
2023-06-08T03:18:13.418Z,1568.60
2023-06-08T03:19:13.161Z,1569.13
2023-06-08T03:20:12.953Z,1568.85
2023-06-08T03:21:12.937Z,1568.82
2023-06-08T03:22:12.829Z,1568.03
2023-06-08T03:23:13.661Z,1568.78
2023-06-08T03:24:13.502Z,1568.70
2023-06-08T03:25:13.319Z,1567.95
2023-06-08T03:26:13.065Z,1568.46
2023-06-08T03:27:12.878Z,1569.07
2023-06-08T03:28:13.650Z,1569.26
2023-06-08T03:29:13.878Z,1568.43
2023-06-08T03:30:14.456Z,1567.94
2023-06-08T03:31:13.810Z,1568.08
2023-06-08T03:32:13.694Z,1568.00
2023-06-08T03:33:13.437Z,1568.12
2023-06-08T03:34:13.227Z,1568.56
2023-06-08T03:35:13.313Z,1569.06
2023-06-08T03:36:13.131Z,1568.59
2023-06-08T03:37:12.981Z,1567.93
2023-06-08T03:38:12.802Z,1568.19
2023-06-08T03:39:13.916Z,1569.15
2023-06-08T03:40:12.822Z,1568.94
2023-06-08T03:41:13.623Z,1568.28
2023-06-08T03:42:13.592Z,1568.22
2023-06-08T03:43:13.591Z,1568.74
2023-06-08T03:44:13.593Z,1568.27
2023-06-08T03:45:13.419Z,1568.09
2023-06-08T03:46:13.388Z,1568.49
2023-06-08T03:47:13.241Z,1568.82
2023-06-08T03:48:13.300Z,1568.39
2023-06-08T03:49:13.175Z,1567.80
2023-06-08T03:50:13.233Z,1567.51
2023-06-08T03:51:13.416Z,1567.45
2023-06-08T03:52:13.363Z,1567.61
2023-06-08T03:53:13.185Z,1567.50
2023-06-08T03:54:13.097Z,1567.94
2023-06-08T03:55:12.922Z,1568.34
2023-06-08T03:56:12.831Z,1567.57
2023-06-08T03:57:13.709Z,1567.34
2023-06-08T03:58:13.432Z,1567.73
2023-06-08T03:59:14.391Z,1567.39
2023-06-08T04:00:13.564Z,1568.17
2023-06-08T04:01:13.506Z,1568.00
2023-06-08T04:02:13.683Z,1567.83
2023-06-08T04:03:13.911Z,1568.00
2023-06-08T04:04:13.032Z,1568.78
2023-06-08T04:05:12.884Z,1568.09
2023-06-08T04:06:13.988Z,1567.19
2023-06-08T04:07:13.094Z,1567.86
2023-06-08T04:08:13.014Z,1567.32
2023-06-08T04:09:13.118Z,1568.58
2023-06-08T04:10:13.085Z,1568.49
2023-06-08T04:11:12.878Z,1568.54
2023-06-08T04:12:13.946Z,1568.12
2023-06-08T04:13:12.755Z,1568.13
2023-06-08T04:14:13.610Z,1567.26
2023-06-08T04:15:13.432Z,1568.18
2023-06-08T04:16:13.263Z,1567.91
2023-06-08T04:17:13.228Z,1567.74
2023-06-08T04:18:13.001Z,1568.08
2023-06-08T04:19:13.126Z,1568.56
2023-06-08T04:20:12.969Z,1567.22
2023-06-08T04:21:13.000Z,1567.13
2023-06-08T04:22:12.949Z,1567.28
2023-06-08T04:23:14.001Z,1569.09
2023-06-08T04:24:12.902Z,1568.77
2023-06-08T04:25:13.004Z,1568.32
2023-06-08T04:26:12.781Z,1567.85
2023-06-08T04:27:13.676Z,1568.92
2023-06-08T04:28:13.568Z,1569.31
2023-06-08T04:29:13.516Z,1569.15
2023-06-08T04:30:13.449Z,1568.50
2023-06-08T04:31:13.404Z,1569.07
2023-06-08T04:32:14.382Z,1568.35
2023-06-08T04:33:13.342Z,1569.01
2023-06-08T04:34:13.312Z,1569.82
2023-06-08T04:35:13.252Z,1568.82
2023-06-08T04:36:13.198Z,1568.37
2023-06-08T04:37:12.984Z,1568.61
2023-06-08T04:38:14.556Z,1568.38
2023-06-08T04:39:13.629Z,1568.07
2023-06-08T04:40:13.433Z,1568.65
2023-06-08T04:41:13.658Z,1568.28
2023-06-08T04:42:13.467Z,1568.94
2023-06-08T04:43:13.341Z,1569.08
2023-06-08T04:44:13.340Z,1570.11
2023-06-08T04:45:13.234Z,1568.99
2023-06-08T04:46:13.101Z,1569.16
2023-06-08T04:47:13.088Z,1569.61
2023-06-08T04:48:13.034Z,1569.07
2023-06-08T04:49:12.757Z,1569.06
2023-06-08T04:50:13.785Z,1569.48
2023-06-08T04:51:13.705Z,1569.69
2023-06-08T04:52:13.682Z,1570.36
2023-06-08T04:53:13.673Z,1570.45
2023-06-08T04:54:13.697Z,1571.12
2023-06-08T04:55:13.678Z,1571.69
2023-06-08T04:56:13.500Z,1571.45
2023-06-08T04:57:13.399Z,1571.50
2023-06-08T04:58:13.417Z,1571.92
2023-06-08T04:59:13.329Z,1572.03
2023-06-08T05:00:13.130Z,1571.08
2023-06-08T05:01:13.045Z,1571.68
2023-06-08T05:02:12.922Z,1571.64
2023-06-08T05:03:12.954Z,1571.08
2023-06-08T05:04:13.020Z,1570.92
2023-06-08T05:05:12.870Z,1570.72
2023-06-08T05:06:13.809Z,1570.60
2023-06-08T05:07:13.610Z,1570.90
2023-06-08T05:08:13.431Z,1569.83
2023-06-08T05:09:13.229Z,1569.58
2023-06-08T05:10:13.277Z,1570.28
2023-06-08T05:11:13.333Z,1569.63
2023-06-08T05:12:13.094Z,1569.99
2023-06-08T05:13:12.958Z,1570.54
2023-06-08T05:14:12.737Z,1571.40
2023-06-08T05:15:13.793Z,1571.66
2023-06-08T05:16:13.879Z,1570.31
2023-06-08T05:17:12.912Z,1569.68
2023-06-08T05:18:12.898Z,1570.46
2023-06-08T05:19:12.807Z,1571.29
2023-06-08T05:20:13.787Z,1571.48
2023-06-08T05:21:13.692Z,1571.80
2023-06-08T05:22:13.445Z,1572.35
2023-06-08T05:23:13.565Z,1571.37
2023-06-08T05:24:13.508Z,1572.37
2023-06-08T05:25:13.511Z,1572.43
2023-06-08T05:26:13.401Z,1571.74
2023-06-08T05:27:13.737Z,1571.63
2023-06-08T05:28:13.725Z,1571.51
2023-06-08T05:29:13.817Z,1572.34
2023-06-08T05:30:13.717Z,1573.07
2023-06-08T05:31:13.668Z,1571.96
2023-06-08T05:32:13.544Z,1572.73
2023-06-08T05:33:13.821Z,1573.00
2023-06-08T05:34:14.129Z,1574.36
2023-06-08T05:35:13.080Z,1573.94
2023-06-08T05:36:12.866Z,1572.26
2023-06-08T05:37:13.790Z,1573.05
2023-06-08T05:38:13.630Z,1572.68
2023-06-08T05:39:13.676Z,1573.02
2023-06-08T05:40:13.506Z,1573.85
2023-06-08T05:41:13.312Z,1573.04
2023-06-08T05:42:13.096Z,1574.13
2023-06-08T05:43:12.868Z,1575.88
2023-06-08T05:44:12.711Z,1575.28
2023-06-08T05:45:13.605Z,1574.66
2023-06-08T05:46:13.336Z,1575.23
2023-06-08T05:47:13.248Z,1576.62
2023-06-08T05:48:13.211Z,1574.92
2023-06-08T05:49:13.236Z,1575.72
2023-06-08T05:50:13.230Z,1576.65
2023-06-08T05:51:13.160Z,1575.26
2023-06-08T05:52:13.285Z,1575.07
2023-06-08T05:53:13.051Z,1575.00
2023-06-08T05:54:12.853Z,1574.08
2023-06-08T05:55:13.816Z,1575.17
2023-06-08T05:56:13.618Z,1574.72
2023-06-08T05:57:13.470Z,1575.05
2023-06-08T05:58:13.390Z,1575.07
2023-06-08T05:59:13.322Z,1575.80
2023-06-08T06:00:13.389Z,1574.37
2023-06-08T06:01:13.542Z,1575.30
2023-06-08T06:02:13.433Z,1574.90
2023-06-08T06:03:13.366Z,1574.46
2023-06-08T06:04:26.250Z,1574.33
2023-06-08T06:05:13.588Z,1574.20
2023-06-08T06:06:13.641Z,1574.88
2023-06-08T06:07:13.652Z,1574.77
2023-06-08T06:08:13.380Z,1574.26
2023-06-08T06:09:13.344Z,1574.03
2023-06-08T06:10:13.251Z,1574.96
2023-06-08T06:11:13.218Z,1574.62
2023-06-08T06:12:13.355Z,1573.59
2023-06-08T06:13:13.222Z,1573.48
2023-06-08T06:14:13.220Z,1574.22
2023-06-08T06:15:13.041Z,1573.77
2023-06-08T06:16:15.699Z,1573.39
2023-06-08T06:17:13.300Z,1573.45
2023-06-08T06:18:13.352Z,1574.79
2023-06-08T06:19:13.063Z,1574.93
2023-06-08T06:20:12.908Z,1575.33
2023-06-08T06:21:12.730Z,1574.47
2023-06-08T06:22:13.635Z,1575.17
2023-06-08T06:23:13.635Z,1575.35
2023-06-08T06:24:13.912Z,1575.36
2023-06-08T06:25:12.795Z,1573.69
2023-06-08T06:26:13.643Z,1575.09
2023-06-08T06:27:13.470Z,1575.53
2023-06-08T06:28:13.268Z,1574.71
2023-06-08T06:29:13.718Z,1574.57
2023-06-08T06:30:13.558Z,1573.80
2023-06-08T06:31:13.535Z,1574.54
2023-06-08T06:32:13.602Z,1574.23
2023-06-08T06:33:13.715Z,1575.23
2023-06-08T06:34:13.730Z,1574.54
2023-06-08T06:35:13.609Z,1573.73
2023-06-08T06:36:13.572Z,1573.72
2023-06-08T06:37:13.646Z,1574.83
2023-06-08T06:38:13.912Z,1574.13
2023-06-08T06:39:12.645Z,1574.52
2023-06-08T06:40:13.606Z,1575.88
2023-06-08T06:41:13.364Z,1576.58
2023-06-08T06:42:13.235Z,1576.75
2023-06-08T06:43:13.039Z,1577.05
2023-06-08T06:44:13.028Z,1575.92
2023-06-08T06:45:12.795Z,1576.20
2023-06-08T06:46:13.619Z,1576.50
2023-06-08T06:47:13.620Z,1575.40
2023-06-08T06:48:13.505Z,1575.24
2023-06-08T06:49:13.442Z,1574.98
2023-06-08T06:50:13.340Z,1575.78
2023-06-08T06:51:13.292Z,1575.17
2023-06-08T06:52:13.119Z,1574.60
2023-06-08T06:53:13.022Z,1575.07
2023-06-08T06:54:12.828Z,1574.03
2023-06-08T06:55:13.703Z,1575.93
2023-06-08T06:56:13.518Z,1575.51
2023-06-08T06:57:13.359Z,1575.33
2023-06-08T06:58:13.498Z,1576.22
2023-06-08T06:59:13.261Z,1577.02
2023-06-08T07:00:13.140Z,1577.06
2023-06-08T07:01:13.295Z,1577.28
2023-06-08T07:02:13.176Z,1577.15
2023-06-08T07:03:13.228Z,1577.08
2023-06-08T07:04:13.301Z,1577.40
2023-06-08T07:05:13.323Z,1577.37
2023-06-08T07:06:13.438Z,1577.21
2023-06-08T07:07:13.773Z,1576.34
2023-06-08T07:08:14.055Z,1576.50
2023-06-08T07:09:12.965Z,1576.17
2023-06-08T07:10:12.986Z,1575.69
2023-06-08T07:11:12.918Z,1575.78
2023-06-08T07:12:15.622Z,1577.03
2023-06-08T07:13:13.553Z,1577.15
2023-06-08T07:14:13.420Z,1578.44
2023-06-08T07:15:13.185Z,1577.94
2023-06-08T07:16:13.021Z,1577.95
2023-06-08T07:17:13.213Z,1576.74
2023-06-08T07:18:13.080Z,1577.16
2023-06-08T07:19:12.984Z,1578.18
2023-06-08T07:20:13.210Z,1576.82
2023-06-08T07:21:13.464Z,1578.01
2023-06-08T07:22:21.185Z,1577.48
2023-06-08T07:23:28.904Z,1577.14
2023-06-08T07:25:12.042Z,1575.52
2023-06-08T07:25:43.982Z,1576.25
2023-06-08T07:26:29.956Z,1575.57
2023-06-08T07:27:12.899Z,1575.06
2023-06-08T07:28:12.830Z,1576.03
2023-06-08T07:29:13.798Z,1575.68
2023-06-08T07:30:13.584Z,1576.51
2023-06-08T07:31:13.584Z,1577.57
2023-06-08T07:32:13.542Z,1577.47
2023-06-08T07:33:13.535Z,1577.44
2023-06-08T07:34:13.548Z,1577.35
2023-06-08T07:35:13.289Z,1576.27
2023-06-08T07:36:13.383Z,1575.81
2023-06-08T07:37:13.291Z,1578.17
2023-06-08T07:38:13.134Z,1577.08
2023-06-08T07:39:12.958Z,1577.99
2023-06-08T07:40:13.072Z,1576.78
2023-06-08T07:41:13.259Z,1576.27
2023-06-08T07:42:13.516Z,1575.92
2023-06-08T07:43:13.386Z,1577.96
2023-06-08T07:44:13.428Z,1578.90
2023-06-08T07:45:13.253Z,1577.96
2023-06-08T07:46:13.051Z,1578.08
2023-06-08T07:47:13.005Z,1577.67
2023-06-08T07:48:12.972Z,1576.79
2023-06-08T07:49:12.726Z,1575.89
2023-06-08T07:50:13.684Z,1575.78
2023-06-08T07:51:13.659Z,1576.09
2023-06-08T07:52:13.465Z,1576.86
2023-06-08T07:53:13.304Z,1577.66
2023-06-08T07:54:13.174Z,1578.40
2023-06-08T07:55:12.985Z,1577.57
2023-06-08T07:56:13.094Z,1577.99
2023-06-08T07:57:13.298Z,1579.68
2023-06-08T07:58:13.392Z,1577.86
2023-06-08T07:59:13.283Z,1577.96
2023-06-08T08:00:13.247Z,1578.45
2023-06-08T08:01:13.021Z,1578.92
2023-06-08T08:02:13.056Z,1579.42
2023-06-08T08:03:13.242Z,1577.89
2023-06-08T08:04:13.241Z,1578.10
2023-06-08T08:05:13.260Z,1578.51
2023-06-08T08:06:13.119Z,1579.61
2023-06-08T08:07:12.929Z,1579.95
2023-06-08T08:08:12.744Z,1579.19
2023-06-08T08:09:13.465Z,1579.29
2023-06-08T08:10:13.531Z,1579.17
2023-06-08T08:11:13.567Z,1579.11
2023-06-08T08:12:13.626Z,1579.66
2023-06-08T08:13:13.419Z,1579.52
2023-06-08T08:14:13.254Z,1579.93
2023-06-08T08:15:13.158Z,1579.31
2023-06-08T08:16:13.335Z,1579.99
2023-06-08T08:17:13.231Z,1580.77
2023-06-08T08:18:13.160Z,1582.01
2023-06-08T08:19:13.156Z,1580.63
2023-06-08T08:20:12.984Z,1580.07
2023-06-08T08:21:12.940Z,1579.46
2023-06-08T08:22:15.211Z,1580.46
2023-06-08T08:23:13.380Z,1581.38
2023-06-08T08:24:13.299Z,1581.92
2023-06-08T08:25:13.103Z,1582.58
2023-06-08T08:26:13.053Z,1581.60
2023-06-08T08:27:12.856Z,1581.89
2023-06-08T08:28:13.946Z,1581.08
2023-06-08T08:29:12.735Z,1580.36
2023-06-08T08:30:13.670Z,1580.57
2023-06-08T08:31:13.793Z,1581.90
2023-06-08T08:32:13.607Z,1582.28
2023-06-08T08:33:16.534Z,1580.93
2023-06-08T08:34:13.425Z,1582.70
2023-06-08T08:35:13.270Z,1583.35
2023-06-08T08:36:13.093Z,1583.89
2023-06-08T08:37:12.889Z,1584.01
2023-06-08T08:38:13.001Z,1584.23
2023-06-08T08:39:13.021Z,1585.44
2023-06-08T08:40:13.214Z,1585.17
2023-06-08T08:41:13.343Z,1583.90
2023-06-08T08:42:13.235Z,1582.39
2023-06-08T08:43:13.242Z,1580.37
2023-06-08T08:44:13.183Z,1580.60
2023-06-08T08:45:13.042Z,1581.64
2023-06-08T08:46:12.997Z,1582.20
2023-06-08T08:47:12.892Z,1583.44
2023-06-08T08:48:12.983Z,1581.65
2023-06-08T08:49:13.167Z,1580.50
2023-06-08T08:50:13.272Z,1581.46
2023-06-08T08:51:13.066Z,1582.74
2023-06-08T08:52:13.615Z,1583.67
2023-06-08T08:53:13.606Z,1582.51
2023-06-08T08:54:13.812Z,1584.23
2023-06-08T08:55:25.921Z,1583.40
2023-06-08T08:56:13.164Z,1585.34
2023-06-08T08:57:12.971Z,1582.92
2023-06-08T08:58:12.807Z,1584.52
2023-06-08T08:59:13.637Z,1586.03
2023-06-08T09:00:13.524Z,1587.17
2023-06-08T09:01:13.509Z,1586.42
2023-06-08T09:02:13.568Z,1586.66
2023-06-08T09:03:13.492Z,1586.07
2023-06-08T09:04:13.555Z,1584.29
2023-06-08T09:05:13.502Z,1586.07
2023-06-08T09:06:13.304Z,1584.91
2023-06-08T09:07:13.450Z,1583.76
2023-06-08T09:08:13.212Z,1584.15
2023-06-08T09:09:13.137Z,1585.58
2023-06-08T09:10:13.056Z,1585.04
2023-06-08T09:11:12.901Z,1583.79
2023-06-08T09:12:13.911Z,1585.00
2023-06-08T09:13:12.968Z,1585.12
2023-06-08T09:14:12.924Z,1586.07
2023-06-08T09:15:17.893Z,1585.11
2023-06-08T09:16:12.712Z,1584.20
2023-06-08T09:17:15.528Z,1584.58
2023-06-08T09:18:13.458Z,1585.28
2023-06-08T09:19:13.428Z,1584.76
2023-06-08T09:20:13.292Z,1586.29
2023-06-08T09:21:18.285Z,1586.76
2023-06-08T09:22:13.053Z,1588.60
2023-06-08T09:23:12.966Z,1589.12
2023-06-08T09:24:13.045Z,1589.70
2023-06-08T09:25:13.203Z,1588.73
2023-06-08T09:26:13.112Z,1587.87
2023-06-08T09:27:12.950Z,1586.91
2023-06-08T09:28:12.834Z,1587.14
2023-06-08T09:29:13.859Z,1586.36
2023-06-08T09:30:47.994Z,1587.92
2023-06-08T09:31:00.297Z,1587.77
2023-06-08T09:31:17.289Z,1587.49
2023-06-08T09:32:13.327Z,1588.10
2023-06-08T09:33:13.345Z,1588.48
2023-06-08T09:34:13.332Z,1589.32
2023-06-08T09:35:13.275Z,1592.44
2023-06-08T09:36:13.194Z,1591.13
2023-06-08T09:37:13.303Z,1593.20
2023-06-08T09:38:13.320Z,1592.92
2023-06-08T09:39:13.336Z,1591.47
2023-06-08T09:40:13.185Z,1593.21
2023-06-08T09:41:13.189Z,1592.83
2023-06-08T09:42:13.200Z,1592.53
2023-06-08T09:43:13.329Z,1593.01
2023-06-08T09:44:13.696Z,1590.98
2023-06-08T09:45:13.662Z,1594.73
2023-06-08T09:46:13.464Z,1596.23
2023-06-08T09:47:13.427Z,1595.64
2023-06-08T09:48:13.391Z,1594.08
2023-06-08T09:49:13.281Z,1594.58
2023-06-08T09:50:13.307Z,1592.81
2023-06-08T09:51:13.104Z,1590.53
2023-06-08T09:52:13.135Z,1592.35
2023-06-08T09:53:13.114Z,1594.86
2023-06-08T09:54:12.911Z,1596.92
2023-06-08T09:55:12.969Z,1597.45
2023-06-08T09:56:12.748Z,1593.56
2023-06-08T09:57:13.693Z,1595.83
2023-06-08T09:58:13.442Z,1596.17
2023-06-08T09:59:13.280Z,1592.69
2023-06-08T10:00:13.329Z,1594.62
2023-06-08T10:01:13.542Z,1594.63
2023-06-08T10:02:13.542Z,1593.03
2023-06-08T10:03:13.735Z,1593.35
2023-06-08T10:04:14.689Z,1590.03
2023-06-08T10:05:13.510Z,1590.89
2023-06-08T10:06:13.287Z,1591.13
2023-06-08T10:07:13.106Z,1590.85
2023-06-08T10:08:12.933Z,1593.03
2023-06-08T10:09:12.985Z,1594.02
2023-06-08T10:10:12.953Z,1594.68
2023-06-08T10:11:12.837Z,1596.17
2023-06-08T10:12:13.956Z,1595.60
2023-06-08T10:13:12.976Z,1597.86
2023-06-08T10:14:12.878Z,1600.34
2023-06-08T10:15:13.748Z,1595.97
2023-06-08T10:16:13.692Z,1597.40
2023-06-08T10:17:13.772Z,1592.93
2023-06-08T10:18:23.797Z,1591.79
2023-06-08T10:19:13.670Z,1591.83
2023-06-08T10:20:14.595Z,1590.70
2023-06-08T10:21:13.640Z,1590.36
2023-06-08T10:22:13.427Z,1591.66
2023-06-08T10:23:13.204Z,1594.39
2023-06-08T10:24:13.544Z,1593.94
2023-06-08T10:25:13.942Z,1596.52
2023-06-08T10:26:13.383Z,1597.07
2023-06-08T10:27:13.580Z,1597.55
2023-06-08T10:28:13.801Z,1598.18
2023-06-08T10:29:21.657Z,1595.20
2023-06-08T10:30:13.211Z,1594.61
2023-06-08T10:31:13.222Z,1596.91
2023-06-08T10:32:13.063Z,1596.96
2023-06-08T10:33:12.943Z,1596.23
2023-06-08T10:34:12.956Z,1595.80
2023-06-08T10:35:12.862Z,1595.13
2023-06-08T10:36:13.801Z,1594.95
2023-06-08T10:37:13.664Z,1595.65
2023-06-08T10:38:13.548Z,1595.06
2023-06-08T10:39:13.601Z,1592.01
2023-06-08T10:40:13.373Z,1592.75
2023-06-08T10:41:13.184Z,1593.47
2023-06-08T10:42:13.324Z,1594.68
2023-06-08T10:43:33.695Z,1593.88
2023-06-08T10:44:12.907Z,1592.07
2023-06-08T10:45:12.638Z,1594.26
2023-06-08T10:46:13.490Z,1597.53
2023-06-08T10:47:13.489Z,1597.02
2023-06-08T10:48:13.371Z,1596.84
2023-06-08T10:49:13.356Z,1597.17
2023-06-08T10:50:13.406Z,1596.99
2023-06-08T10:51:13.308Z,1597.94
2023-06-08T10:52:13.208Z,1597.66
2023-06-08T10:53:13.338Z,1596.54
2023-06-08T10:54:13.329Z,1593.52
2023-06-08T10:55:13.140Z,1594.64
2023-06-08T10:56:13.161Z,1596.00
2023-06-08T10:57:15.523Z,1594.77
2023-06-08T10:58:13.532Z,1596.54
2023-06-08T10:59:13.397Z,1594.36
2023-06-08T11:00:14.454Z,1594.38
2023-06-08T11:01:13.323Z,1593.73
2023-06-08T11:02:13.592Z,1597.69
2023-06-08T11:03:13.564Z,1597.28
2023-06-08T11:04:18.210Z,1598.64
2023-06-08T11:05:13.255Z,1601.24
2023-06-08T11:06:13.383Z,1598.71
2023-06-08T11:07:13.163Z,1595.17
2023-06-08T11:08:13.017Z,1595.05
2023-06-08T11:09:13.475Z,1594.25
2023-06-08T11:10:13.520Z,1596.06
2023-06-08T11:11:13.509Z,1597.08
2023-06-08T11:12:13.277Z,1599.56
2023-06-08T11:13:13.064Z,1600.57
2023-06-08T11:14:13.277Z,1597.89
2023-06-08T11:15:13.214Z,1598.14
2023-06-08T11:16:14.077Z,1602.36
2023-06-08T11:17:12.891Z,1602.11
2023-06-08T11:18:12.888Z,1601.59
2023-06-08T11:19:12.672Z,1600.88
2023-06-08T11:20:13.490Z,1597.12
2023-06-08T11:21:13.341Z,1596.95
2023-06-08T11:22:13.119Z,1597.26
2023-06-08T11:23:13.032Z,1598.75
2023-06-08T11:24:12.841Z,1602.60
2023-06-08T11:25:12.896Z,1605.06
2023-06-08T11:26:12.619Z,1602.76
2023-06-08T11:27:13.400Z,1599.02
2023-06-08T11:28:13.197Z,1599.22
2023-06-08T11:29:13.259Z,1601.01
2023-06-08T11:30:18.246Z,1598.81
2023-06-08T11:31:13.299Z,1600.21
2023-06-08T11:32:13.284Z,1599.58
2023-06-08T11:33:23.917Z,1599.81
2023-06-08T11:34:38.536Z,1600.39
2023-06-08T11:35:20.125Z,1600.06
2023-06-08T11:36:18.495Z,1598.30
2023-06-08T11:37:49.685Z,1597.70
2023-06-08T11:38:13.985Z,1596.55
2023-06-08T11:40:12.969Z,1597.95
2023-06-08T11:41:12.721Z,1596.57
2023-06-08T11:42:13.806Z,1597.74
2023-06-08T11:43:13.669Z,1597.20
2023-06-08T11:44:13.487Z,1596.22
2023-06-08T11:45:13.419Z,1596.86
2023-06-08T11:46:13.305Z,1599.24
2023-06-08T11:47:13.266Z,1600.91
2023-06-08T11:48:17.318Z,1603.82
2023-06-08T11:49:13.570Z,1602.00
2023-06-08T11:50:13.501Z,1598.10
2023-06-08T11:51:13.800Z,1599.13
2023-06-08T11:52:13.769Z,1599.61
2023-06-08T11:53:13.871Z,1600.04
2023-06-08T11:54:13.683Z,1597.72
2023-06-08T11:55:14.172Z,1600.68
2023-06-08T11:56:13.121Z,1601.06
2023-06-08T11:57:12.940Z,1599.86
2023-06-08T11:58:12.865Z,1597.20
2023-06-08T11:59:13.680Z,1599.23
2023-06-08T12:00:13.649Z,1599.63
2023-06-08T12:01:23.527Z,1603.02
2023-06-08T12:02:13.398Z,1599.92
2023-06-08T12:03:13.368Z,1600.42
2023-06-08T12:04:13.739Z,1599.03
2023-06-08T12:05:13.733Z,1601.46